Time;durP1;ratioP1;P1;durP2;ratioP2;P2;SDS_P1;SDS_P2;PMS_P1;PMS_P2;Temp;Humidity;BMP_temperature;BMP_pressure;BME280_temperature;BME280_humidity;BME280_pressure;Samples;Min_cycle;Max_cycle;Signal;HPM_P1;HPM_P2
2021/03/20 00:02:48;;;;;;;17.15;9.48;;;;;;;;;;6217792;28;20139;-73
2021/03/20 00:05:50;;;;;;;16.08;9.50;;;;;;;;;;6219219;28;20077;-68
2021/03/20 00:09:00;;;;;;;16.40;9.82;;;;;;;;;;6217142;28;20144;-71
2021/03/20 00:12:02;;;;;;;14.48;9.73;;;;;;;;;;6211349;28;20056;-73
2021/03/20 00:15:04;;;;;;;15.35;9.70;;;;;;;;;;6209706;28;20568;-70
2021/03/20 00:18:07;;;;;;;16.05;10.00;;;;;;;;;;6213854;28;20048;-70
2021/03/20 00:21:09;;;;;;;16.95;9.60;;;;;;;;;;6210276;28;20426;-69
2021/03/20 00:24:10;;;;;;;15.18;9.80;;;;;;;;;;6207347;28;20491;-69
2021/03/20 00:27:11;;;;;;;15.80;9.18;;;;;;;;;;6211807;28;20046;-69
2021/03/20 00:30:13;;;;;;;15.95;9.27;;;;;;;;;;6205698;28;20057;-71
2021/03/20 00:33:15;;;;;;;13.55;8.82;;;;;;;;;;6208751;28;20133;-73
2021/03/20 00:36:18;;;;;;;13.70;9.00;;;;;;;;;;6205318;28;20169;-71
2021/03/20 00:39:19;;;;;;;12.00;9.15;;;;;;;;;;6207471;28;20584;-69
2021/03/20 00:42:20;;;;;;;12.98;9.88;;;;;;;;;;6204982;28;20078;-68
2021/03/20 00:45:22;;;;;;;14.32;9.27;;;;;;;;;;6212347;28;20089;-68
2021/03/20 00:48:26;;;;;;;15.43;10.00;;;;;;;;;;6209188;28;20109;-69
2021/03/20 00:51:27;;;;;;;16.63;9.48;;;;;;;;;;6211033;28;20911;-70
2021/03/20 00:54:28;;;;;;;19.10;10.40;;;;;;;;;;6207926;28;20073;-70
2021/03/20 00:57:29;;;;;;;33.28;19.27;;;;;;;;;;6210225;28;20530;-68
2021/03/20 01:00:31;;;;;;;24.05;13.88;;;;;;;;;;6206789;28;20848;-64
2021/03/20 01:03:33;;;;;;;25.98;13.93;;;;;;;;;;6196600;28;20485;-66
2021/03/20 01:06:34;;;;;;;42.95;21.58;;;;;;;;;;6204088;28;20089;-74
2021/03/20 01:09:35;;;;;;;52.25;25.73;;;;;;;;;;6207417;28;20135;-66
2021/03/20 01:12:36;;;;;;;75.40;38.88;;;;;;;;;;6206484;28;20141;-67
2021/03/20 01:15:38;;;;;;;20.88;14.35;;;;;;;;;;6207166;28;20218;-69
2021/03/20 01:18:40;;;;;;;16.17;10.88;;;;;;;;;;6206555;28;20084;-69
2021/03/20 01:21:41;;;;;;;15.60;10.43;;;;;;;;;;6203673;28;20440;-71
2021/03/20 01:24:42;;;;;;;15.60;10.82;;;;;;;;;;6208986;28;20129;-71
2021/03/20 01:27:43;;;;;;;16.80;11.68;;;;;;;;;;6202845;28;20054;-72
2021/03/20 01:30:44;;;;;;;17.98;10.35;;;;;;;;;;6203411;28;20125;-70
2021/03/20 01:33:46;;;;;;;15.80;11.27;;;;;;;;;;6213766;28;20144;-70
2021/03/20 01:36:47;;;;;;;14.65;10.77;;;;;;;;;;6208154;28;20073;-70
2021/03/20 01:39:49;;;;;;;17.17;10.75;;;;;;;;;;6209946;28;20057;-70
2021/03/20 01:42:50;;;;;;;17.75;11.88;;;;;;;;;;6212065;28;20045;-72
2021/03/20 01:45:52;;;;;;;18.33;12.45;;;;;;;;;;6210079;28;20070;-71
2021/03/20 01:48:54;;;;;;;18.27;11.52;;;;;;;;;;6210584;28;20081;-68
2021/03/20 01:51:59;;;;;;;15.55;12.07;;;;;;;;;;6205882;28;20082;-69
2021/03/20 01:55:06;;;;;;;17.83;11.48;;;;;;;;;;6205195;28;20119;-71
2021/03/20 01:58:07;;;;;;;17.70;12.25;;;;;;;;;;6205295;28;20116;-69
2021/03/20 02:01:10;;;;;;;18.75;12.60;;;;;;;;;;6208860;28;20137;-70
2021/03/20 02:04:12;;;;;;;19.40;12.25;;;;;;;;;;6205461;28;20046;-69
2021/03/20 02:07:13;;;;;;;17.73;12.48;;;;;;;;;;6208035;28;20084;-71
2021/03/20 02:10:15;;;;;;;17.38;12.07;;;;;;;;;;6205971;28;20042;-69
2021/03/20 02:13:21;;;;;;;19.38;12.07;;;;;;;;;;6204045;28;20552;-71
2021/03/20 02:16:26;;;;;;;18.58;12.60;;;;;;;;;;6211610;28;20497;-73
2021/03/20 02:20:09;;;;;;;18.35;11.88;;;;;;;;;;6208247;28;20501;-74
2021/03/20 02:23:42;;;;;;;19.27;12.05;;;;;;;;;;6186615;28;20069;-69
2021/03/20 02:27:17;;;;;;;16.42;11.15;;;;;;;;;;6209396;28;20129;-71
2021/03/20 02:31:01;;;;;;;18.20;12.10;;;;;;;;;;6204945;28;20539;-68
2021/03/20 02:34:10;;;;;;;16.20;12.20;;;;;;;;;;6205003;28;20065;-71
2021/03/20 02:37:14;;;;;;;16.25;11.75;;;;;;;;;;6204986;28;20525;-74
2021/03/20 02:40:16;;;;;;;;;;;;;;;;;;6205542;28;20042;-69
2021/03/20 02:43:22;;;;;;;18.73;11.57;;;;;;;;;;6206274;28;20008;-71
2021/03/20 02:46:26;;;;;;;17.42;10.85;;;;;;;;;;6210262;28;20133;-69
2021/03/20 02:49:32;;;;;;;17.05;11.52;;;;;;;;;;6203022;28;20112;-69
2021/03/20 02:52:37;;;;;;;17.35;11.15;;;;;;;;;;6207058;28;20136;-70
2021/03/20 02:55:41;;;;;;;15.50;11.02;;;;;;;;;;6209176;28;20085;-70
2021/03/20 02:58:47;;;;;;;16.05;11.13;;;;;;;;;;6206243;28;20050;-70
2021/03/20 03:01:48;;;;;;;15.32;10.93;;;;;;;;;;6207139;28;20082;-70
2021/03/20 03:04:54;;;;;;;13.95;9.80;;;;;;;;;;6209588;28;20057;-71
2021/03/20 03:07:57;;;;;;;14.82;10.38;;;;;;;;;;6199154;28;20481;-69
2021/03/20 03:11:03;;;;;;;15.07;9.82;;;;;;;;;;6202889;28;20066;-72
2021/03/20 03:14:08;;;;;;;15.68;10.02;;;;;;;;;;6200666;28;20085;-72
2021/03/20 03:17:09;;;;;;;14.30;10.07;;;;;;;;;;6196963;28;20046;-71
2021/03/20 03:20:15;;;;;;;13.88;9.60;;;;;;;;;;6206117;28;20085;-69
2021/03/20 03:23:18;;;;;;;16.20;9.82;;;;;;;;;;6209966;28;20085;-69
2021/03/20 03:26:21;;;;;;;16.27;10.15;;;;;;;;;;6206391;28;20044;-69
2021/03/20 03:29:25;;;;;;;16.70;9.38;;;;;;;;;;6213316;28;20077;-70
2021/03/20 03:32:31;;;;;;;15.88;9.93;;;;;;;;;;6210179;28;20073;-69
2021/03/20 03:35:35;;;;;;;15.82;9.00;;;;;;;;;;6207672;28;20049;-70
2021/03/20 03:38:43;;;;;;;12.38;8.27;;;;;;;;;;6206936;28;20132;-69
2021/03/20 03:41:44;;;;;;;13.95;9.15;;;;;;;;;;6213732;28;20052;-70
2021/03/20 03:44:50;;;;;;;15.45;9.05;;;;;;;;;;6211655;28;20213;-69
2021/03/20 03:47:51;;;;;;;12.63;9.18;;;;;;;;;;6209532;28;20400;-69
2021/03/20 03:50:56;;;;;;;13.32;9.57;;;;;;;;;;6214393;28;20457;-69
2021/03/20 03:53:58;;;;;;;12.45;9.43;;;;;;;;;;6213919;28;20141;-69
2021/03/20 03:57:37;;;;;;;14.43;9.60;;;;;;;;;;6216120;28;20053;-70
2021/03/20 04:00:42;;;;;;;13.32;8.93;;;;;;;;;;6209503;28;20065;-69
2021/03/20 04:04:01;;;;;;;12.15;9.38;;;;;;;;;;6210896;28;20050;-70
2021/03/20 04:07:40;;;;;;;13.85;9.95;;;;;;;;;;6209794;28;20763;-72
2021/03/20 04:10:45;;;;;;;11.73;8.52;;;;;;;;;;6203999;28;20131;-70
2021/03/20 04:13:50;;;;;;;16.20;9.60;;;;;;;;;;6215797;28;20073;-71
2021/03/20 04:16:58;;;;;;;12.85;9.15;;;;;;;;;;6216608;28;20046;-74
2021/03/20 04:20:04;;;;;;;13.10;9.07;;;;;;;;;;6213751;28;20465;-70
2021/03/20 04:23:09;;;;;;;12.48;9.35;;;;;;;;;;6208001;28;20161;-70
2021/03/20 04:26:17;;;;;;;13.70;9.77;;;;;;;;;;6210801;28;20070;-72
2021/03/20 04:29:29;;;;;;;14.35;9.52;;;;;;;;;;6215791;28;20072;-69
2021/03/20 04:32:33;;;;;;;14.10;9.85;;;;;;;;;;6201205;28;20117;-70
2021/03/20 04:35:37;;;;;;;13.07;9.48;;;;;;;;;;6210035;28;20473;-70
2021/03/20 04:38:38;;;;;;;14.68;10.02;;;;;;;;;;6202016;28;20070;-71
2021/03/20 04:41:40;;;;;;;13.38;9.70;;;;;;;;;;6208225;28;20481;-71
2021/03/20 04:44:41;;;;;;;15.02;10.13;;;;;;;;;;6212342;28;20073;-70
2021/03/20 04:47:43;;;;;;;13.07;9.70;;;;;;;;;;6208887;28;20078;-70
2021/03/20 04:50:47;;;;;;;13.55;9.32;;;;;;;;;;6207849;28;20133;-71
2021/03/20 04:53:48;;;;;;;15.07;9.57;;;;;;;;;;6205007;28;20060;-73
2021/03/20 04:56:54;;;;;;;13.90;10.35;;;;;;;;;;6207402;28;20124;-71
2021/03/20 05:00:05;;;;;;;14.60;9.25;;;;;;;;;;6207966;28;20069;-71
2021/03/20 05:03:13;;;;;;;12.88;9.27;;;;;;;;;;6206442;28;20077;-71
2021/03/20 05:06:16;;;;;;;14.73;9.90;;;;;;;;;;6210207;28;20112;-72
2021/03/20 05:09:21;;;;;;;14.90;9.63;;;;;;;;;;6207951;28;20132;-71
2021/03/20 05:12:26;;;;;;;11.82;9.18;;;;;;;;;;6205335;28;20129;-72
2021/03/20 05:15:29;;;;;;;17.17;9.30;;;;;;;;;;6209985;28;20269;-70
2021/03/20 05:18:30;;;;;;;14.43;9.68;;;;;;;;;;6211258;28;20038;-69
2021/03/20 05:21:33;;;;;;;13.70;10.00;;;;;;;;;;6209325;28;20062;-70
2021/03/20 05:24:36;;;;;;;13.63;9.75;;;;;;;;;;6204721;28;20515;-71
2021/03/20 05:27:38;;;;;;;15.18;10.30;;;;;;;;;;6208309;28;20465;-69
2021/03/20 05:30:39;;;;;;;13.63;10.43;;;;;;;;;;6183002;28;20129;-71
2021/03/20 05:33:41;;;;;;;15.02;9.82;;;;;;;;;;6183099;28;20138;-69
2021/03/20 05:36:42;;;;;;;15.18;10.05;;;;;;;;;;6193796;28;20137;-71
2021/03/20 05:39:43;;;;;;;12.75;9.27;;;;;;;;;;6192588;28;20714;-70
2021/03/20 05:43:01;;;;;;;15.40;9.75;;;;;;;;;;6187185;28;20121;-70
2021/03/20 05:46:11;;;;;;;15.95;10.75;;;;;;;;;;6210362;28;20041;-69
2021/03/20 05:49:24;;;;;;;15.75;10.00;;;;;;;;;;6198299;28;20070;-72
2021/03/20 05:52:43;;;;;;;14.18;10.00;;;;;;;;;;6188780;28;20113;-71
2021/03/20 05:55:47;;;;;;;14.35;9.63;;;;;;;;;;6178538;28;20177;-69
2021/03/20 05:59:03;;;;;;;19.45;10.38;;;;;;;;;;6185313;28;20181;-69
2021/03/20 06:02:21;;;;;;;18.33;10.68;;;;;;;;;;6181820;28;20748;-75
2021/03/20 06:05:34;;;;;;;17.17;10.82;;;;;;;;;;6178494;28;20126;-70
2021/03/20 06:08:47;;;;;;;14.98;10.02;;;;;;;;;;6185515;28;20418;-69
2021/03/20 06:12:00;;;;;;;13.70;10.20;;;;;;;;;;6183941;28;20054;-70
2021/03/20 06:15:14;;;;;;;16.23;10.68;;;;;;;;;;6183404;28;20047;-69
2021/03/20 06:18:33;;;;;;;12.43;9.50;;;;;;;;;;6181289;28;20042;-69
2021/03/20 06:21:44;;;;;;;16.95;10.45;;;;;;;;;;6182960;28;20130;-69
2021/03/20 06:25:10;;;;;;;17.95;11.50;;;;;;;;;;6179366;28;20074;-69
2021/03/20 06:28:13;;;;;;;14.05;10.35;;;;;;;;;;6198479;28;20099;-69
2021/03/20 06:31:19;;;;;;;15.00;11.00;;;;;;;;;;6209395;28;20550;-70
2021/03/20 06:34:24;;;;;;;16.88;10.88;;;;;;;;;;6203941;28;20096;-70
2021/03/20 06:37:26;;;;;;;;;;;;;;;;;;6209510;28;20121;-70
2021/03/20 06:40:44;;;;;;;16.13;11.18;;;;;;;;;;6207405;28;20015;-70
2021/03/20 06:43:52;;;;;;;17.38;11.48;;;;;;;;;;6202357;28;20137;-70
2021/03/20 06:46:54;;;;;;;16.15;11.18;;;;;;;;;;6207768;28;20124;-72
2021/03/20 06:49:58;;;;;;;18.13;12.18;;;;;;;;;;6215507;28;20125;-69
2021/03/20 06:53:01;;;;;;;16.27;11.20;;;;;;;;;;6208702;28;20133;-70
2021/03/20 06:56:04;;;;;;;20.30;11.80;;;;;;;;;;6207190;28;20077;-69
2021/03/20 06:59:10;;;;;;;20.77;13.00;;;;;;;;;;6204625;28;20076;-69
2021/03/20 07:02:20;;;;;;;18.80;12.60;;;;;;;;;;6205400;28;20072;-70
2021/03/20 07:05:24;;;;;;;18.75;12.35;;;;;;;;;;6208050;28;20056;-72
2021/03/20 07:08:34;;;;;;;17.55;13.10;;;;;;;;;;6204282;28;20074;-70
2021/03/20 07:11:37;;;;;;;15.65;11.80;;;;;;;;;;6206141;28;20124;-70
2021/03/20 07:14:44;;;;;;;17.95;12.55;;;;;;;;;;6202630;28;20065;-73
2021/03/20 07:17:45;;;;;;;18.15;13.10;;;;;;;;;;6205559;28;20053;-70
2021/03/20 07:20:47;;;;;;;17.25;12.52;;;;;;;;;;6205585;28;20456;-70
2021/03/20 07:23:53;;;;;;;20.95;13.40;;;;;;;;;;6206958;28;20079;-70
2021/03/20 07:26:57;;;;;;;21.83;14.60;;;;;;;;;;6212838;28;20158;-68
2021/03/20 07:29:59;;;;;;;20.00;13.38;;;;;;;;;;6206123;28;20070;-69
2021/03/20 07:33:01;;;;;;;20.85;12.88;;;;;;;;;;6201807;28;20100;-68
2021/03/20 07:36:22;;;;;;;20.10;12.82;;;;;;;;;;6203042;28;20130;-70
2021/03/20 07:39:26;;;;;;;19.10;13.02;;;;;;;;;;6205121;28;20058;-69
2021/03/20 07:42:30;;;;;;;17.80;13.85;;;;;;;;;;6211944;28;20085;-72
2021/03/20 07:45:31;;;;;;;;;;;;;;;;;;6214643;28;20049;-69
2021/03/20 07:48:33;;;;;;;20.00;13.85;;;;;;;;;;6202261;28;20414;-70
2021/03/20 07:51:45;;;;;;;17.75;13.77;;;;;;;;;;6207490;28;20085;-68
2021/03/20 07:54:46;;;;;;;18.33;14.18;;;;;;;;;;6202201;28;20533;-71
2021/03/20 07:57:52;;;;;;;20.33;15.68;;;;;;;;;;6203490;28;20156;-69
2021/03/20 08:00:56;;;;;;;20.00;14.88;;;;;;;;;;6210979;28;20069;-69
2021/03/20 08:04:00;;;;;;;19.30;14.48;;;;;;;;;;6206532;28;20619;-73
2021/03/20 08:07:01;;;;;;;17.85;14.40;;;;;;;;;;6207907;28;20124;-68
2021/03/20 08:10:26;;;;;;;19.92;14.88;;;;;;;;;;6206816;28;20073;-69
2021/03/20 08:13:44;;;;;;;17.58;13.63;;;;;;;;;;6210770;28;20505;-70
2021/03/20 08:16:45;;;;;;;18.85;14.30;;;;;;;;;;6206607;28;20057;-72
2021/03/20 08:19:48;;;;;;;17.55;14.05;;;;;;;;;;6209978;28;20133;-71
2021/03/20 08:23:04;;;;;;;16.50;13.00;;;;;;;;;;6208906;28;20061;-70
2021/03/20 08:26:15;;;;;;;18.05;13.38;;;;;;;;;;6209847;28;20100;-69
2021/03/20 08:29:24;;;;;;;18.42;12.82;;;;;;;;;;6218604;28;20480;-70
2021/03/20 08:32:36;;;;;;;16.92;12.55;;;;;;;;;;6210998;28;20054;-71
2021/03/20 08:35:46;;;;;;;17.35;12.48;;;;;;;;;;6203698;28;20076;-69
2021/03/20 08:38:53;;;;;;;17.30;11.60;;;;;;;;;;6211918;28;20137;-72
2021/03/20 08:42:01;;;;;;;15.82;11.68;;;;;;;;;;6215784;28;20533;-71
2021/03/20 08:45:18;;;;;;;17.55;13.32;;;;;;;;;;6213597;28;20070;-70
2021/03/20 08:48:32;;;;;;;15.02;11.63;;;;;;;;;;6210014;28;20607;-71
2021/03/20 08:51:41;;;;;;;16.92;12.35;;;;;;;;;;6212166;28;20088;-69
2021/03/20 08:55:03;;;;;;;17.00;12.13;;;;;;;;;;6208363;28;20077;-71
2021/03/20 08:58:14;;;;;;;12.90;10.38;;;;;;;;;;6191452;28;20105;-70
2021/03/20 09:01:25;;;;;;;12.07;10.13;;;;;;;;;;6213275;28;20145;-70
2021/03/20 09:04:28;;;;;;;16.20;10.52;;;;;;;;;;6207701;28;20046;-73
2021/03/20 09:07:35;;;;;;;12.60;10.68;;;;;;;;;;6208396;28;20077;-70
2021/03/20 09:10:40;;;;;;;13.85;11.20;;;;;;;;;;6198408;28;20047;-71
2021/03/20 09:13:44;;;;;;;13.27;10.38;;;;;;;;;;6180222;28;21627;-70
2021/03/20 09:16:47;;;;;;;;;;;;;;;;;;6191890;28;20557;-70
2021/03/20 09:19:52;;;;;;;13.65;10.00;;;;;;;;;;6205055;28;20466;-69
2021/03/20 09:22:55;;;;;;;14.13;10.35;;;;;;;;;;6193757;28;20045;-74
2021/03/20 09:25:58;;;;;;;12.00;10.68;;;;;;;;;;6206128;28;20787;-69
2021/03/20 09:29:18;;;;;;;11.57;10.30;;;;;;;;;;6197308;28;20054;-70
2021/03/20 09:32:19;;;;;;;12.48;10.25;;;;;;;;;;6181028;28;20813;-71
2021/03/20 09:35:23;;;;;;;15.70;9.57;;;;;;;;;;6203403;28;20046;-72
2021/03/20 09:38:45;;;;;;;11.15;9.60;;;;;;;;;;6206673;28;20054;-70
2021/03/20 09:41:46;;;;;;;10.88;9.52;;;;;;;;;;6204742;28;20060;-74
2021/03/20 09:44:47;;;;;;;12.63;9.68;;;;;;;;;;6186316;28;20093;-68
2021/03/20 09:47:50;;;;;;;10.20;9.18;;;;;;;;;;6177045;28;20054;-73
2021/03/20 09:50:51;;;;;;;13.77;9.07;;;;;;;;;;6184827;28;20089;-69
2021/03/20 09:53:53;;;;;;;10.02;8.90;;;;;;;;;;6191083;28;20073;-73
2021/03/20 09:56:55;;;;;;;10.82;8.85;;;;;;;;;;6189547;28;20047;-70
2021/03/20 09:59:56;;;;;;;12.95;8.65;;;;;;;;;;6196631;28;20148;-72
2021/03/20 10:02:57;;;;;;;13.23;9.18;;;;;;;;;;6207956;28;20124;-68
2021/03/20 10:06:13;;;;;;;10.02;8.95;;;;;;;;;;6193973;28;20105;-69
2021/03/20 10:09:25;;;;;;;10.30;8.75;;;;;;;;;;6200411;28;20066;-67
2021/03/20 10:12:31;;;;;;;9.15;8.25;;;;;;;;;;6195899;28;20126;-70
2021/03/20 10:15:35;;;;;;;8.98;8.07;;;;;;;;;;6182702;28;20066;-71
2021/03/20 10:18:55;;;;;;;12.70;9.00;;;;;;;;;;6185063;28;20410;-70
2021/03/20 10:22:00;;;;;;;10.48;8.82;;;;;;;;;;6200870;28;20517;-68
2021/03/20 10:25:04;;;;;;;11.68;8.85;;;;;;;;;;6190598;28;20489;-68
2021/03/20 10:28:05;;;;;;;;;;;;;;;;;;6187023;28;20150;-71
2021/03/20 10:31:08;;;;;;;8.57;7.20;;;;;;;;;;6185874;28;19975;-71
2021/03/20 10:34:11;;;;;;;7.82;6.50;;;;;;;;;;6204871;28;20107;-71
2021/03/20 10:37:16;;;;;;;;;;;;;;;;;;6209263;28;20169;-71
2021/03/20 10:40:23;;;;;;;9.98;7.53;;;;;;;;;;6217556;28;20311;-69
2021/03/20 10:43:25;;;;;;;12.80;7.50;;;;;;;;;;6215506;28;20061;-70
2021/03/20 10:46:28;;;;;;;8.65;7.70;;;;;;;;;;6193314;28;20081;-79
2021/03/20 10:49:33;;;;;;;9.02;7.32;;;;;;;;;;6184645;28;20073;-69
2021/03/20 10:52:37;;;;;;;10.55;7.07;;;;;;;;;;6161465;28;20054;-72
2021/03/20 10:55:42;;;;;;;10.10;7.10;;;;;;;;;;6185296;28;20050;-67
2021/03/20 10:58:43;;;;;;;11.32;8.50;;;;;;;;;;6187119;28;20137;-67
2021/03/20 11:01:44;;;;;;;34.00;19.13;;;;;;;;;;6202429;28;20145;-70
2021/03/20 11:04:45;;;;;;;64.28;33.78;;;;;;;;;;6192818;28;20101;-69
2021/03/20 11:07:48;;;;;;;39.88;21.23;;;;;;;;;;6180549;28;20046;-71
2021/03/20 11:10:52;;;;;;;10.07;7.80;;;;;;;;;;6182014;28;20046;-68
2021/03/20 11:13:54;;;;;;;7.47;6.68;;;;;;;;;;6182987;28;20053;-68
2021/03/20 11:17:00;;;;;;;7.40;6.38;;;;;;;;;;6207093;28;20073;-72
2021/03/20 11:20:06;;;;;;;10.40;6.90;;;;;;;;;;6198330;28;20069;-70
2021/03/20 11:23:16;;;;;;;185.40;65.00;;;;;;;;;;6180319;28;20085;-69
2021/03/20 11:26:38;;;;;;;157.02;56.40;;;;;;;;;;6192832;28;20166;-67
2021/03/20 11:29:40;;;;;;;79.97;29.95;;;;;;;;;;6178294;28;20121;-67
2021/03/20 11:32:43;;;;;;;34.83;16.83;;;;;;;;;;6201646;28;20050;-67
2021/03/20 11:35:47;;;;;;;54.63;25.90;;;;;;;;;;6200584;28;20054;-67
2021/03/20 11:38:48;;;;;;;9.02;7.38;;;;;;;;;;6208513;28;20156;-68
2021/03/20 11:42:00;;;;;;;29.02;12.38;;;;;;;;;;6192468;28;20070;-68
2021/03/20 11:45:07;;;;;;;7.38;6.53;;;;;;;;;;6206467;28;20046;-69
2021/03/20 11:48:14;;;;;;;6.70;5.40;;;;;;;;;;6198382;28;20066;-68
2021/03/20 11:51:21;;;;;;;9.38;5.65;;;;;;;;;;6203277;28;20164;-74
2021/03/20 11:54:30;;;;;;;5.65;4.95;;;;;;;;;;6210410;28;20477;-70
2021/03/20 11:57:35;;;;;;;9.90;4.85;;;;;;;;;;6208635;28;20073;-76
2021/03/20 12:00:43;;;;;;;7.85;5.13;;;;;;;;;;6211929;28;20069;-69
2021/03/20 12:03:44;;;;;;;5.00;4.50;;;;;;;;;;6212171;28;20421;-70
2021/03/20 12:06:45;;;;;;;5.75;4.57;;;;;;;;;;6210429;28;20177;-69
2021/03/20 12:09:46;;;;;;;5.53;4.85;;;;;;;;;;6200557;28;20149;-71
2021/03/20 12:12:50;;;;;;;11.73;5.95;;;;;;;;;;6206771;28;20484;-69
2021/03/20 12:15:54;;;;;;;5.93;5.32;;;;;;;;;;6206353;28;20728;-71
2021/03/20 12:19:08;;;;;;;;;;;;;;;;;;6216479;28;20057;-67
2021/03/20 12:22:15;;;;;;;5.80;4.75;;;;;;;;;;6212009;28;20016;-69
2021/03/20 12:25:34;;;;;;;5.85;4.35;;;;;;;;;;6208539;28;20046;-70
2021/03/20 12:28:38;;;;;;;4.30;3.90;;;;;;;;;;6207334;28;20057;-71
2021/03/20 12:31:39;;;;;;;5.50;4.30;;;;;;;;;;6211891;28;20165;-70
2021/03/20 12:34:40;;;;;;;4.95;4.45;;;;;;;;;;6215892;28;20532;-69
2021/03/20 12:37:42;;;;;;;5.05;4.57;;;;;;;;;;6211226;28;20105;-68
2021/03/20 12:40:48;;;;;;;6.40;5.15;;;;;;;;;;6208371;28;20051;-71
2021/03/20 12:44:09;;;;;;;5.78;4.72;;;;;;;;;;6204374;28;20404;-70
2021/03/20 12:47:15;;;;;;;6.20;4.80;;;;;;;;;;6204839;28;20046;-72
2021/03/20 12:50:16;;;;;;;5.07;4.43;;;;;;;;;;6203925;28;20424;-71
2021/03/20 12:53:17;;;;;;;5.32;4.82;;;;;;;;;;6206304;28;20068;-70
2021/03/20 12:56:19;;;;;;;6.97;4.75;;;;;;;;;;6214255;28;20077;-71
2021/03/20 12:59:21;;;;;;;6.20;5.25;;;;;;;;;;6205542;28;20057;-72
2021/03/20 13:02:23;;;;;;;6.20;5.25;;;;;;;;;;6214428;28;20489;-73
2021/03/20 13:05:26;;;;;;;4.80;4.32;;;;;;;;;;6213488;28;20073;-75
2021/03/20 13:08:28;;;;;;;5.18;4.68;;;;;;;;;;6210680;28;20668;-73
2021/03/20 13:11:29;;;;;;;5.93;4.82;;;;;;;;;;6211700;28;20074;-74
2021/03/20 13:14:31;;;;;;;4.68;4.28;;;;;;;;;;6213284;28;20634;-72
2021/03/20 13:17:32;;;;;;;4.93;4.22;;;;;;;;;;6207230;28;20133;-73
2021/03/20 13:20:33;;;;;;;10.52;4.40;;;;;;;;;;6212194;28;20056;-72
2021/03/20 13:23:34;;;;;;;4.57;4.18;;;;;;;;;;6218348;28;20076;-73
2021/03/20 13:26:36;;;;;;;5.50;5.00;;;;;;;;;;6218770;28;20053;-74
2021/03/20 13:29:37;;;;;;;5.15;4.20;;;;;;;;;;6216170;28;20519;-72
2021/03/20 13:32:39;;;;;;;6.20;4.68;;;;;;;;;;6213475;28;20085;-72
2021/03/20 13:35:42;;;;;;;9.32;4.60;;;;;;;;;;6215419;28;20156;-73
2021/03/20 13:38:43;;;;;;;5.97;4.65;;;;;;;;;;6211008;28;20125;-73
2021/03/20 13:41:44;;;;;;;5.88;4.82;;;;;;;;;;6209109;28;20046;-78
2021/03/20 13:44:46;;;;;;;6.78;4.82;;;;;;;;;;6220628;28;20517;-73
2021/03/20 13:47:47;;;;;;;5.70;5.10;;;;;;;;;;6214647;28;20084;-73
2021/03/20 13:50:49;;;;;;;5.55;4.32;;;;;;;;;;6214208;28;20092;-74
2021/03/20 13:53:50;;;;;;;5.15;4.55;;;;;;;;;;6212639;28;20112;-73
2021/03/20 13:56:51;;;;;;;8.07;4.50;;;;;;;;;;6214974;28;20133;-73
2021/03/20 13:59:53;;;;;;;4.82;4.10;;;;;;;;;;6214511;28;20136;-70
2021/03/20 14:02:54;;;;;;;5.50;4.25;;;;;;;;;;6206198;28;20050;-71
2021/03/20 14:05:56;;;;;;;4.90;4.40;;;;;;;;;;6202586;28;20057;-71
2021/03/20 14:08:57;;;;;;;4.93;4.20;;;;;;;;;;6204902;28;20154;-74
2021/03/20 14:11:58;;;;;;;4.65;3.90;;;;;;;;;;6206634;28;20069;-74
2021/03/20 14:15:00;;;;;;;5.75;4.55;;;;;;;;;;6212452;28;20058;-73
2021/03/20 14:18:02;;;;;;;4.88;4.03;;;;;;;;;;6206636;28;20062;-72
2021/03/20 14:21:06;;;;;;;4.93;4.30;;;;;;;;;;6207032;28;20046;-74
2021/03/20 14:24:07;;;;;;;5.65;3.92;;;;;;;;;;6201555;28;21100;-70
2021/03/20 14:27:09;;;;;;;5.45;4.20;;;;;;;;;;6188256;28;20085;-70
2021/03/20 14:30:18;;;;;;;5.68;4.10;;;;;;;;;;6203697;28;20060;-70
2021/03/20 14:33:21;;;;;;;5.07;4.47;;;;;;;;;;6211641;28;20479;-70
2021/03/20 14:36:22;;;;;;;5.57;4.07;;;;;;;;;;6212824;28;20151;-71
2021/03/20 14:39:23;;;;;;;5.72;4.22;;;;;;;;;;6207457;28;20070;-71
2021/03/20 14:42:24;;;;;;;5.40;4.18;;;;;;;;;;6203942;28;20663;-69
2021/03/20 14:45:26;;;;;;;7.68;5.20;;;;;;;;;;6202078;28;20074;-70
2021/03/20 14:48:30;;;;;;;7.50;4.57;;;;;;;;;;6196849;28;20049;-71
2021/03/20 14:51:31;;;;;;;6.15;4.15;;;;;;;;;;6199797;28;20501;-73
2021/03/20 14:54:33;;;;;;;4.75;4.32;;;;;;;;;;6201660;28;20132;-71
2021/03/20 14:57:34;;;;;;;4.93;4.40;;;;;;;;;;6200175;28;20398;-71
2021/03/20 15:00:38;;;;;;;4.95;4.07;;;;;;;;;;6201089;28;20038;-71
2021/03/20 15:03:39;;;;;;;4.25;3.83;;;;;;;;;;6199948;28;20175;-72
2021/03/20 15:06:40;;;;;;;5.03;3.92;;;;;;;;;;6201796;28;20137;-71
2021/03/20 15:09:41;;;;;;;6.10;4.35;;;;;;;;;;6200379;28;20473;-73
2021/03/20 15:12:42;;;;;;;4.72;4.22;;;;;;;;;;6204726;28;20123;-72
2021/03/20 15:15:44;;;;;;;4.68;4.10;;;;;;;;;;6204108;28;20073;-71
2021/03/20 15:18:45;;;;;;;4.72;4.28;;;;;;;;;;6203531;28;20077;-70
2021/03/20 15:21:46;;;;;;;5.10;4.07;;;;;;;;;;6200914;28;20046;-69
2021/03/20 15:24:47;;;;;;;6.15;4.20;;;;;;;;;;6204686;28;20073;-71
2021/03/20 15:27:49;;;;;;;5.03;4.25;;;;;;;;;;6210166;28;20152;-73
2021/03/20 15:30:51;;;;;;;7.90;4.47;;;;;;;;;;6211137;28;20109;-72
2021/03/20 15:33:52;;;;;;;4.70;4.20;;;;;;;;;;6208952;28;20492;-73
2021/03/20 15:36:53;;;;;;;5.00;4.07;;;;;;;;;;6204907;28;20057;-73
2021/03/20 15:39:55;;;;;;;4.75;4.20;;;;;;;;;;6210274;28;20599;-73
2021/03/20 15:42:56;;;;;;;4.63;3.92;;;;;;;;;;6206665;28;20073;-73
2021/03/20 15:45:58;;;;;;;7.60;4.03;;;;;;;;;;6206347;28;20551;-72
2021/03/20 15:48:59;;;;;;;4.60;4.07;;;;;;;;;;6183361;28;20119;-72
2021/03/20 15:52:00;;;;;;;6.60;4.38;;;;;;;;;;6179351;28;20053;-72
2021/03/20 15:55:02;;;;;;;4.75;3.92;;;;;;;;;;6208445;28;20064;-72
2021/03/20 15:58:05;;;;;;;4.65;4.00;;;;;;;;;;6208708;28;20141;-72
2021/03/20 16:01:09;;;;;;;4.45;3.88;;;;;;;;;;6196928;28;20446;-72
2021/03/20 16:04:10;;;;;;;11.10;4.40;;;;;;;;;;6202562;28;20602;-70
2021/03/20 16:07:11;;;;;;;4.47;4.00;;;;;;;;;;6203219;28;20512;-72
2021/03/20 16:10:18;;;;;;;4.68;4.15;;;;;;;;;;6207384;28;20153;-71
2021/03/20 16:13:20;;;;;;;4.80;3.88;;;;;;;;;;6195345;28;20471;-72
2021/03/20 16:16:23;;;;;;;17.42;4.95;;;;;;;;;;6184761;28;20524;-71
2021/03/20 16:19:24;;;;;;;6.57;4.27;;;;;;;;;;6184885;28;20046;-72
2021/03/20 16:22:25;;;;;;;6.10;5.03;;;;;;;;;;6180986;28;20085;-71
2021/03/20 16:25:28;;;;;;;6.57;4.40;;;;;;;;;;6180561;28;20042;-72
2021/03/20 16:28:31;;;;;;;7.72;4.38;;;;;;;;;;6178005;28;20171;-74
2021/03/20 16:31:33;;;;;;;7.60;4.60;;;;;;;;;;6181574;28;20054;-69
2021/03/20 16:34:34;;;;;;;6.28;4.32;;;;;;;;;;6192108;28;20089;-71
2021/03/20 16:37:36;;;;;;;6.60;4.45;;;;;;;;;;6204829;28;20726;-70
2021/03/20 16:40:38;;;;;;;8.25;4.70;;;;;;;;;;6204455;28;20042;-71
2021/03/20 16:43:39;;;;;;;5.13;4.35;;;;;;;;;;6193984;28;20058;-73
2021/03/20 16:46:41;;;;;;;372.10;27.17;;;;;;;;;;6180086;28;20509;-74
2021/03/20 16:49:43;;;;;;;10.00;4.80;;;;;;;;;;6197069;28;20119;-74
2021/03/20 16:52:44;;;;;;;11.10;5.25;;;;;;;;;;6202255;28;20050;-73
2021/03/20 16:55:45;;;;;;;7.20;4.90;;;;;;;;;;6206577;28;20066;-73
2021/03/20 16:58:47;;;;;;;23.73;5.68;;;;;;;;;;6190093;28;20454;-73
2021/03/20 17:01:49;;;;;;;29.75;5.70;;;;;;;;;;6187976;28;20066;-73
2021/03/20 17:04:50;;;;;;;9.52;4.90;;;;;;;;;;6184715;28;20042;-74
2021/03/20 17:07:51;;;;;;;11.38;5.20;;;;;;;;;;6182966;28;20061;-73
2021/03/20 17:10:52;;;;;;;7.60;4.63;;;;;;;;;;6192682;28;20100;-73
2021/03/20 17:13:53;;;;;;;5.78;4.82;;;;;;;;;;6193176;28;20492;-74
2021/03/20 17:16:56;;;;;;;7.60;5.13;;;;;;;;;;6194877;28;20047;-73
2021/03/20 17:19:57;;;;;;;8.50;5.65;;;;;;;;;;6180660;28;20061;-74
2021/03/20 17:22:59;;;;;;;12.32;5.70;;;;;;;;;;6199700;28;20046;-74
2021/03/20 17:26:00;;;;;;;6.20;5.30;;;;;;;;;;6203000;28;20046;-74
2021/03/20 17:29:01;;;;;;;7.32;5.78;;;;;;;;;;6203165;28;20050;-75
2021/03/20 17:32:04;;;;;;;9.07;5.50;;;;;;;;;;6187109;28;20053;-74
2021/03/20 17:35:08;;;;;;;8.98;4.97;;;;;;;;;;6205501;28;20060;-73
2021/03/20 17:38:09;;;;;;;7.50;4.90;;;;;;;;;;6196613;28;20735;-73
2021/03/20 17:41:11;;;;;;;8.38;4.80;;;;;;;;;;6175699;28;20133;-73
2021/03/20 17:44:12;;;;;;;8.07;4.90;;;;;;;;;;6175255;28;20190;-73
2021/03/20 17:47:14;;;;;;;8.98;4.80;;;;;;;;;;6177763;28;20058;-74
2021/03/20 17:50:21;;;;;;;10.02;4.60;;;;;;;;;;6179566;28;20082;-74
2021/03/20 17:53:23;;;;;;;10.82;4.40;;;;;;;;;;6201873;28;20380;-73
2021/03/20 17:56:24;;;;;;;8.02;4.32;;;;;;;;;;6202329;28;20042;-73
2021/03/20 17:59:25;;;;;;;6.03;4.03;;;;;;;;;;6200864;28;20151;-74
2021/03/20 18:02:27;;;;;;;10.95;4.50;;;;;;;;;;6203958;28;20050;-72
2021/03/20 18:05:28;;;;;;;6.80;4.43;;;;;;;;;;6203859;28;20203;-73
2021/03/20 18:08:30;;;;;;;6.18;4.28;;;;;;;;;;6202875;28;20048;-73
2021/03/20 18:11:31;;;;;;;5.57;4.45;;;;;;;;;;6187822;28;20521;-72
2021/03/20 18:14:32;;;;;;;6.97;4.25;;;;;;;;;;6184913;28;20167;-72